sensor_id;sensor_type;location;lat;lon;timestamp;P1;durP1;ratioP1;P2;durP2;ratioP2
49582;SDS011;36329;48.816;44.624;2024-03-17T00:00:54;20.2;;;3.4;;
49582;SDS011;36329;48.816;44.624;2024-03-17T00:03:56;19.9;;;3.2;;
49582;SDS011;36329;48.816;44.624;2024-03-17T00:06:58;18.5;;;4;;
49582;SDS011;36329;48.816;44.624;2024-03-17T00:10:00;22.6;;;3.6;;
49582;SDS011;36329;48.816;44.624;2024-03-17T00:13:02;18.4;;;3.5;;
49582;SDS011;36329;48.816;44.624;2024-03-17T00:16:05;22;;;3.4;;
49582;SDS011;36329;48.816;44.624;2024-03-17T00:19:07;26.2;;;3.8;;
49582;SDS011;36329;48.816;44.624;2024-03-17T00:22:09;19.9;;;3.1;;
49582;SDS011;36329;48.816;44.624;2024-03-17T00:25:12;20.5;;;3;;
49582;SDS011;36329;48.816;44.624;2024-03-17T00:28:14;19;;;2.8;;
49582;SDS011;36329;48.816;44.624;2024-03-17T00:31:16;17.7;;;2.9;;
49582;SDS011;36329;48.816;44.624;2024-03-17T00:34:18;26.9;;;3.1;;
49582;SDS011;36329;48.816;44.624;2024-03-17T00:37:20;17;;;3.1;;
49582;SDS011;36329;48.816;44.624;2024-03-17T00:40:23;16.4;;;3.3;;
49582;SDS011;36329;48.816;44.624;2024-03-17T00:43:25;25.8;;;2.9;;
49582;SDS011;36329;48.816;44.624;2024-03-17T00:46:27;23.7;;;3.4;;
49582;SDS011;36329;48.816;44.624;2024-03-17T00:49:29;21.8;;;3;;
49582;SDS011;36329;48.816;44.624;2024-03-17T00:52:32;18.8;;;2.8;;
49582;SDS011;36329;48.816;44.624;2024-03-17T00:55:34;22.1;;;3.5;;
49582;SDS011;36329;48.816;44.624;2024-03-17T00:58:37;22.5;;;3.3;;
49582;SDS011;36329;48.816;44.624;2024-03-17T01:01:39;14.4;;;3.3;;
49582;SDS011;36329;48.816;44.624;2024-03-17T01:04:41;22.7;;;3.5;;
49582;SDS011;36329;48.816;44.624;2024-03-17T01:07:44;22;;;3.8;;
49582;SDS011;36329;48.816;44.624;2024-03-17T01:10:46;20.6;;;3;;
49582;SDS011;36329;48.816;44.624;2024-03-17T01:13:50;19.2;;;2.9;;
49582;SDS011;36329;48.816;44.624;2024-03-17T01:16:52;20.9;;;3.3;;
49582;SDS011;36329;48.816;44.624;2024-03-17T01:19:54;18.5;;;2.7;;
49582;SDS011;36329;48.816;44.624;2024-03-17T01:22:56;20.6;;;3.1;;
49582;SDS011;36329;48.816;44.624;2024-03-17T01:25:58;22.4;;;3.4;;
49582;SDS011;36329;48.816;44.624;2024-03-17T01:29:01;21.3;;;3.3;;
49582;SDS011;36329;48.816;44.624;2024-03-17T01:32:03;22.8;;;3.3;;
49582;SDS011;36329;48.816;44.624;2024-03-17T01:35:07;19.7;;;2.9;;
49582;SDS011;36329;48.816;44.624;2024-03-17T01:38:09;14.2;;;3;;
49582;SDS011;36329;48.816;44.624;2024-03-17T01:41:11;17.9;;;3.1;;
49582;SDS011;36329;48.816;44.624;2024-03-17T01:44:22;23.1;;;3.4;;
49582;SDS011;36329;48.816;44.624;2024-03-17T01:47:25;16.9;;;2.9;;
49582;SDS011;36329;48.816;44.624;2024-03-17T01:50:28;16.3;;;3.2;;
49582;SDS011;36329;48.816;44.624;2024-03-17T01:53:36;10.7;;;2.6;;
49582;SDS011;36329;48.816;44.624;2024-03-17T01:56:40;16.7;;;2.6;;
49582;SDS011;36329;48.816;44.624;2024-03-17T01:59:43;9.7;;;2.7;;
49582;SDS011;36329;48.816;44.624;2024-03-17T02:02:45;8.4;;;2.6;;
49582;SDS011;36329;48.816;44.624;2024-03-17T02:05:47;11.3;;;2.8;;
49582;SDS011;36329;48.816;44.624;2024-03-17T02:08:51;10.5;;;2.7;;
49582;SDS011;36329;48.816;44.624;2024-03-17T02:11:56;12.2;;;2.5;;
49582;SDS011;36329;48.816;44.624;2024-03-17T02:14:59;10.5;;;2.9;;
49582;SDS011;36329;48.816;44.624;2024-03-17T02:18:01;8.8;;;2.6;;
49582;SDS011;36329;48.816;44.624;2024-03-17T02:21:03;7.6;;;2.3;;
49582;SDS011;36329;48.816;44.624;2024-03-17T02:24:08;8.8;;;2.3;;
49582;SDS011;36329;48.816;44.624;2024-03-17T02:27:10;5.3;;;2.2;;
49582;SDS011;36329;48.816;44.624;2024-03-17T02:30:14;6.2;;;2.3;;
49582;SDS011;36329;48.816;44.624;2024-03-17T02:33:17;8.1;;;2.1;;
49582;SDS011;36329;48.816;44.624;2024-03-17T02:36:19;4.8;;;2.2;;
49582;SDS011;36329;48.816;44.624;2024-03-17T02:39:21;4.2;;;1.8;;
49582;SDS011;36329;48.816;44.624;2024-03-17T02:42:25;5.4;;;2;;
49582;SDS011;36329;48.816;44.624;2024-03-17T02:45:27;5.2;;;2.1;;
49582;SDS011;36329;48.816;44.624;2024-03-17T02:48:29;4.4;;;1.8;;
49582;SDS011;36329;48.816;44.624;2024-03-17T02:51:31;4;;;1.9;;
49582;SDS011;36329;48.816;44.624;2024-03-17T02:54:34;3.7;;;1.7;;
49582;SDS011;36329;48.816;44.624;2024-03-17T02:57:37;4.8;;;1.7;;
49582;SDS011;36329;48.816;44.624;2024-03-17T03:00:40;3.5;;;1.8;;
49582;SDS011;36329;48.816;44.624;2024-03-17T03:03:42;3.9;;;1.8;;
49582;SDS011;36329;48.816;44.624;2024-03-17T03:06:45;3.7;;;1.9;;
49582;SDS011;36329;48.816;44.624;2024-03-17T03:09:48;6.1;;;1.8;;
49582;SDS011;36329;48.816;44.624;2024-03-17T03:12:50;3.9;;;1.8;;
49582;SDS011;36329;48.816;44.624;2024-03-17T03:15:52;3.1;;;1.8;;
49582;SDS011;36329;48.816;44.624;2024-03-17T03:18:55;5.2;;;2;;
49582;SDS011;36329;48.816;44.624;2024-03-17T03:21:57;7.3;;;1.8;;
49582;SDS011;36329;48.816;44.624;2024-03-17T03:24:59;4.7;;;1.8;;
49582;SDS011;36329;48.816;44.624;2024-03-17T03:28:02;4.2;;;1.8;;
49582;SDS011;36329;48.816;44.624;2024-03-17T03:31:04;3.9;;;1.8;;
49582;SDS011;36329;48.816;44.624;2024-03-17T03:34:07;4;;;1.9;;
49582;SDS011;36329;48.816;44.624;2024-03-17T03:37:09;5.8;;;2.1;;
49582;SDS011;36329;48.816;44.624;2024-03-17T03:40:11;5.8;;;2.2;;
49582;SDS011;36329;48.816;44.624;2024-03-17T03:43:14;5.8;;;2.1;;
49582;SDS011;36329;48.816;44.624;2024-03-17T03:46:17;9.3;;;2.2;;
49582;SDS011;36329;48.816;44.624;2024-03-17T03:49:19;8.5;;;2.6;;
49582;SDS011;36329;48.816;44.624;2024-03-17T03:52:21;7.1;;;2.4;;
49582;SDS011;36329;48.816;44.624;2024-03-17T03:55:24;6.8;;;2.6;;
49582;SDS011;36329;48.816;44.624;2024-03-17T03:58:27;4.7;;;2.1;;
49582;SDS011;36329;48.816;44.624;2024-03-17T04:01:30;7.9;;;2.4;;
49582;SDS011;36329;48.816;44.624;2024-03-17T04:04:33;5.1;;;2.2;;
49582;SDS011;36329;48.816;44.624;2024-03-17T04:07:35;5.1;;;2;;
49582;SDS011;36329;48.816;44.624;2024-03-17T04:10:38;6.5;;;2.3;;
49582;SDS011;36329;48.816;44.624;2024-03-17T04:13:40;4.2;;;1.7;;
49582;SDS011;36329;48.816;44.624;2024-03-17T04:16:42;3.8;;;1.5;;
49582;SDS011;36329;48.816;44.624;2024-03-17T04:19:45;2.6;;;1.5;;
49582;SDS011;36329;48.816;44.624;2024-03-17T04:22:47;3;;;1.5;;
49582;SDS011;36329;48.816;44.624;2024-03-17T04:25:51;6.1;;;1.9;;
49582;SDS011;36329;48.816;44.624;2024-03-17T04:28:53;4.2;;;1.7;;
49582;SDS011;36329;48.816;44.624;2024-03-17T04:31:55;2.8;;;1.7;;
49582;SDS011;36329;48.816;44.624;2024-03-17T04:34:57;2.5;;;1.9;;
49582;SDS011;36329;48.816;44.624;2024-03-17T04:38:00;3.5;;;1.8;;
49582;SDS011;36329;48.816;44.624;2024-03-17T04:41:02;3.1;;;1.6;;
49582;SDS011;36329;48.816;44.624;2024-03-17T04:44:04;2.7;;;1.9;;
49582;SDS011;36329;48.816;44.624;2024-03-17T04:47:06;3;;;2;;
49582;SDS011;36329;48.816;44.624;2024-03-17T04:50:09;3.1;;;1.9;;
49582;SDS011;36329;48.816;44.624;2024-03-17T04:53:11;3.1;;;1.9;;
49582;SDS011;36329;48.816;44.624;2024-03-17T04:56:14;4;;;2.1;;
49582;SDS011;36329;48.816;44.624;2024-03-17T04:59:17;3.1;;;2;;
49582;SDS011;36329;48.816;44.624;2024-03-17T05:02:19;4.4;;;2;;
49582;SDS011;36329;48.816;44.624;2024-03-17T05:05:21;2.7;;;1.8;;
49582;SDS011;36329;48.816;44.624;2024-03-17T05:08:23;2.4;;;1.6;;
49582;SDS011;36329;48.816;44.624;2024-03-17T05:11:26;2.8;;;1.7;;
49582;SDS011;36329;48.816;44.624;2024-03-17T05:14:28;2.8;;;1.8;;
49582;SDS011;36329;48.816;44.624;2024-03-17T05:17:30;2.8;;;1.6;;
49582;SDS011;36329;48.816;44.624;2024-03-17T05:20:32;2.3;;;1.6;;
49582;SDS011;36329;48.816;44.624;2024-03-17T05:23:36;3.2;;;1.7;;
49582;SDS011;36329;48.816;44.624;2024-03-17T05:26:40;2.5;;;1.4;;
49582;SDS011;36329;48.816;44.624;2024-03-17T05:29:42;2.3;;;1.8;;
49582;SDS011;36329;48.816;44.624;2024-03-17T05:32:44;2.8;;;1.5;;
49582;SDS011;36329;48.816;44.624;2024-03-17T05:35:50;2.2;;;1.4;;
49582;SDS011;36329;48.816;44.624;2024-03-17T05:38:52;4.1;;;1.5;;
49582;SDS011;36329;48.816;44.624;2024-03-17T05:41:55;2.6;;;1.6;;
49582;SDS011;36329;48.816;44.624;2024-03-17T05:44:57;2.2;;;1.7;;
49582;SDS011;36329;48.816;44.624;2024-03-17T05:47:59;3.3;;;1.6;;
49582;SDS011;36329;48.816;44.624;2024-03-17T05:51:01;2.5;;;1.6;;
49582;SDS011;36329;48.816;44.624;2024-03-17T05:54:03;2.7;;;1.7;;
49582;SDS011;36329;48.816;44.624;2024-03-17T05:57:06;3.4;;;1.8;;
49582;SDS011;36329;48.816;44.624;2024-03-17T06:00:09;2.1;;;1.5;;
49582;SDS011;36329;48.816;44.624;2024-03-17T06:03:12;2;;;1.5;;
49582;SDS011;36329;48.816;44.624;2024-03-17T06:06:14;4.9;;;1.7;;
49582;SDS011;36329;48.816;44.624;2024-03-17T06:09:16;2.4;;;1.7;;
49582;SDS011;36329;48.816;44.624;2024-03-17T06:12:19;2.6;;;1.9;;
49582;SDS011;36329;48.816;44.624;2024-03-17T06:15:21;3;;;2.1;;
49582;SDS011;36329;48.816;44.624;2024-03-17T06:18:23;3.9;;;2.1;;
49582;SDS011;36329;48.816;44.624;2024-03-17T06:21:28;2.9;;;2;;
49582;SDS011;36329;48.816;44.624;2024-03-17T06:24:30;3.7;;;2.2;;
49582;SDS011;36329;48.816;44.624;2024-03-17T06:27:32;2.9;;;2.1;;
49582;SDS011;36329;48.816;44.624;2024-03-17T06:30:35;4.3;;;2.3;;
49582;SDS011;36329;48.816;44.624;2024-03-17T06:33:37;4.6;;;2.6;;
49582;SDS011;36329;48.816;44.624;2024-03-17T06:36:39;3.9;;;2.2;;
49582;SDS011;36329;48.816;44.624;2024-03-17T06:39:41;3.8;;;2.6;;
49582;SDS011;36329;48.816;44.624;2024-03-17T06:42:49;3.7;;;2.5;;
49582;SDS011;36329;48.816;44.624;2024-03-17T06:45:54;6.3;;;2.7;;
49582;SDS011;36329;48.816;44.624;2024-03-17T06:48:57;3.7;;;2.5;;
49582;SDS011;36329;48.816;44.624;2024-03-17T06:51:59;4.3;;;2.6;;
49582;SDS011;36329;48.816;44.624;2024-03-17T06:55:02;4.5;;;2.6;;
49582;SDS011;36329;48.816;44.624;2024-03-17T06:58:05;4.1;;;2.8;;
49582;SDS011;36329;48.816;44.624;2024-03-17T07:01:07;4.6;;;2.8;;
49582;SDS011;36329;48.816;44.624;2024-03-17T07:04:10;3.6;;;2.4;;
49582;SDS011;36329;48.816;44.624;2024-03-17T07:07:12;3.6;;;2.5;;
49582;SDS011;36329;48.816;44.624;2024-03-17T07:10:15;4.4;;;2.7;;
49582;SDS011;36329;48.816;44.624;2024-03-17T07:13:18;5.1;;;2.6;;
49582;SDS011;36329;48.816;44.624;2024-03-17T07:16:20;5.6;;;2.8;;
49582;SDS011;36329;48.816;44.624;2024-03-17T07:19:23;5.8;;;2.9;;
49582;SDS011;36329;48.816;44.624;2024-03-17T07:22:25;4.3;;;2.3;;
49582;SDS011;36329;48.816;44.624;2024-03-17T07:25:27;3.7;;;2.5;;
49582;SDS011;36329;48.816;44.624;2024-03-17T07:28:29;4.1;;;2.5;;
49582;SDS011;36329;48.816;44.624;2024-03-17T07:31:33;4.1;;;2.3;;
49582;SDS011;36329;48.816;44.624;2024-03-17T07:34:36;3.6;;;2;;
49582;SDS011;36329;48.816;44.624;2024-03-17T07:37:38;4;;;2.2;;
49582;SDS011;36329;48.816;44.624;2024-03-17T07:40:40;3.9;;;2.2;;
49582;SDS011;36329;48.816;44.624;2024-03-17T07:43:42;3.4;;;2.2;;
49582;SDS011;36329;48.816;44.624;2024-03-17T07:46:44;3.2;;;2.2;;
49582;SDS011;36329;48.816;44.624;2024-03-17T07:49:47;2.9;;;2.1;;
49582;SDS011;36329;48.816;44.624;2024-03-17T07:52:49;2.9;;;1.9;;
49582;SDS011;36329;48.816;44.624;2024-03-17T07:55:59;3.8;;;2.1;;
49582;SDS011;36329;48.816;44.624;2024-03-17T07:59:05;2.5;;;1.9;;
49582;SDS011;36329;48.816;44.624;2024-03-17T08:02:07;2.8;;;2;;
49582;SDS011;36329;48.816;44.624;2024-03-17T08:05:10;2.9;;;1.9;;
49582;SDS011;36329;48.816;44.624;2024-03-17T08:08:12;3;;;2.1;;
49582;SDS011;36329;48.816;44.624;2024-03-17T08:11:14;2.9;;;1.8;;
49582;SDS011;36329;48.816;44.624;2024-03-17T08:14:16;2.9;;;2;;
49582;SDS011;36329;48.816;44.624;2024-03-17T08:17:19;2.5;;;1.7;;
49582;SDS011;36329;48.816;44.624;2024-03-17T08:20:21;3.7;;;1.8;;
49582;SDS011;36329;48.816;44.624;2024-03-17T08:23:23;3.2;;;1.7;;
49582;SDS011;36329;48.816;44.624;2024-03-17T08:26:25;2.9;;;1.6;;
49582;SDS011;36329;48.816;44.624;2024-03-17T08:29:27;2.3;;;1.8;;
49582;SDS011;36329;48.816;44.624;2024-03-17T08:32:30;2.9;;;1.9;;
49582;SDS011;36329;48.816;44.624;2024-03-17T08:35:32;2.7;;;2;;
49582;SDS011;36329;48.816;44.624;2024-03-17T08:38:34;2.8;;;2.1;;
49582;SDS011;36329;48.816;44.624;2024-03-17T08:41:37;3.1;;;2;;
49582;SDS011;36329;48.816;44.624;2024-03-17T08:44:39;2;;;1.6;;
49582;SDS011;36329;48.816;44.624;2024-03-17T08:47:41;2;;;1.5;;
49582;SDS011;36329;48.816;44.624;2024-03-17T08:50:50;2.9;;;1.6;;
49582;SDS011;36329;48.816;44.624;2024-03-17T08:53:52;3.1;;;1.7;;
49582;SDS011;36329;48.816;44.624;2024-03-17T08:56:55;2.5;;;1.6;;
49582;SDS011;36329;48.816;44.624;2024-03-17T08:59:57;3;;;1.8;;
49582;SDS011;36329;48.816;44.624;2024-03-17T09:03:00;3.7;;;2;;
49582;SDS011;36329;48.816;44.624;2024-03-17T09:06:02;3.1;;;1.8;;
49582;SDS011;36329;48.816;44.624;2024-03-17T09:09:07;3.6;;;2;;
49582;SDS011;36329;48.816;44.624;2024-03-17T09:12:09;2.7;;;1.8;;
49582;SDS011;36329;48.816;44.624;2024-03-17T09:15:12;3;;;1.7;;
49582;SDS011;36329;48.816;44.624;2024-03-17T09:18:14;2.3;;;1.6;;
49582;SDS011;36329;48.816;44.624;2024-03-17T09:21:16;2.2;;;1.4;;
49582;SDS011;36329;48.816;44.624;2024-03-17T09:24:19;3.2;;;1.7;;
49582;SDS011;36329;48.816;44.624;2024-03-17T09:27:21;2.3;;;1.6;;
49582;SDS011;36329;48.816;44.624;2024-03-17T09:30:23;2.3;;;1.5;;
49582;SDS011;36329;48.816;44.624;2024-03-17T09:33:26;3.2;;;1.6;;
49582;SDS011;36329;48.816;44.624;2024-03-17T09:36:29;2;;;1.4;;
49582;SDS011;36329;48.816;44.624;2024-03-17T09:39:31;2.2;;;1.3;;
49582;SDS011;36329;48.816;44.624;2024-03-17T09:42:34;1.7;;;1.4;;
49582;SDS011;36329;48.816;44.624;2024-03-17T09:45:36;2;;;1.5;;
49582;SDS011;36329;48.816;44.624;2024-03-17T09:48:39;1.9;;;1.3;;
49582;SDS011;36329;48.816;44.624;2024-03-17T09:51:41;2.6;;;1.5;;
49582;SDS011;36329;48.816;44.624;2024-03-17T09:54:45;2.9;;;1.4;;
49582;SDS011;36329;48.816;44.624;2024-03-17T09:57:47;2.3;;;1.5;;
49582;SDS011;36329;48.816;44.624;2024-03-17T10:00:49;1.7;;;1.4;;
49582;SDS011;36329;48.816;44.624;2024-03-17T10:03:52;1.9;;;1.3;;
49582;SDS011;36329;48.816;44.624;2024-03-17T10:06:55;1.6;;;1.3;;
49582;SDS011;36329;48.816;44.624;2024-03-17T10:10:03;1.8;;;1.3;;
49582;SDS011;36329;48.816;44.624;2024-03-17T10:13:13;1.6;;;1.2;;
49582;SDS011;36329;48.816;44.624;2024-03-17T10:16:20;1.8;;;1.2;;
49582;SDS011;36329;48.816;44.624;2024-03-17T10:19:25;1.8;;;1.1;;
49582;SDS011;36329;48.816;44.624;2024-03-17T10:22:27;2;;;1.4;;
49582;SDS011;36329;48.816;44.624;2024-03-17T10:25:30;1.9;;;1.2;;
49582;SDS011;36329;48.816;44.624;2024-03-17T10:28:33;1.9;;;1.3;;
49582;SDS011;36329;48.816;44.624;2024-03-17T10:31:38;2;;;1.4;;
49582;SDS011;36329;48.816;44.624;2024-03-17T10:34:41;1.7;;;1.2;;
49582;SDS011;36329;48.816;44.624;2024-03-17T10:40:56;1.8;;;1.2;;
49582;SDS011;36329;48.816;44.624;2024-03-17T10:43:59;2.5;;;1.6;;
49582;SDS011;36329;48.816;44.624;2024-03-17T10:47:01;2.2;;;1.4;;
49582;SDS011;36329;48.816;44.624;2024-03-17T10:50:05;1.6;;;1.3;;
49582;SDS011;36329;48.816;44.624;2024-03-17T10:53:20;2.1;;;1.6;;
49582;SDS011;36329;48.816;44.624;2024-03-17T10:56:22;2.3;;;1.7;;
49582;SDS011;36329;48.816;44.624;2024-03-17T10:59:27;3.5;;;1.5;;
49582;SDS011;36329;48.816;44.624;2024-03-17T11:02:41;1.7;;;1.1;;
49582;SDS011;36329;48.816;44.624;2024-03-17T11:05:44;2;;;1.1;;
49582;SDS011;36329;48.816;44.624;2024-03-17T11:08:48;1.6;;;1.1;;
49582;SDS011;36329;48.816;44.624;2024-03-17T11:11:51;1.8;;;1.2;;
49582;SDS011;36329;48.816;44.624;2024-03-17T11:14:57;2.2;;;1.2;;
49582;SDS011;36329;48.816;44.624;2024-03-17T11:18:30;1.8;;;1.2;;
49582;SDS011;36329;48.816;44.624;2024-03-17T11:21:35;1.8;;;1.1;;
49582;SDS011;36329;48.816;44.624;2024-03-17T11:24:40;2.8;;;1.3;;
49582;SDS011;36329;48.816;44.624;2024-03-17T11:27:57;1.9;;;1.4;;
49582;SDS011;36329;48.816;44.624;2024-03-17T11:31:01;1.5;;;1.1;;
49582;SDS011;36329;48.816;44.624;2024-03-17T11:34:04;1.3;;;0.9;;
49582;SDS011;36329;48.816;44.624;2024-03-17T11:37:08;2.4;;;1.2;;
49582;SDS011;36329;48.816;44.624;2024-03-17T11:40:36;1.3;;;0.9;;
49582;SDS011;36329;48.816;44.624;2024-03-17T11:43:38;2.6;;;1;;
49582;SDS011;36329;48.816;44.624;2024-03-17T11:46:42;1.9;;;1.1;;
49582;SDS011;36329;48.816;44.624;2024-03-17T11:49:45;1.5;;;0.9;;
49582;SDS011;36329;48.816;44.624;2024-03-17T11:52:57;1.4;;;1;;
49582;SDS011;36329;48.816;44.624;2024-03-17T11:56:00;2.1;;;1.2;;
49582;SDS011;36329;48.816;44.624;2024-03-17T11:59:04;1.2;;;0.8;;
49582;SDS011;36329;48.816;44.624;2024-03-17T12:02:10;2;;;0.9;;
49582;SDS011;36329;48.816;44.624;2024-03-17T12:05:20;1.2;;;0.8;;
49582;SDS011;36329;48.816;44.624;2024-03-17T12:08:23;1.1;;;0.8;;
49582;SDS011;36329;48.816;44.624;2024-03-17T12:11:25;1.3;;;0.9;;
49582;SDS011;36329;48.816;44.624;2024-03-17T12:14:28;1.5;;;1.1;;
49582;SDS011;36329;48.816;44.624;2024-03-17T12:17:30;1.7;;;1.1;;
49582;SDS011;36329;48.816;44.624;2024-03-17T12:20:32;2.9;;;1.4;;
49582;SDS011;36329;48.816;44.624;2024-03-17T12:23:34;2.7;;;1.6;;
49582;SDS011;36329;48.816;44.624;2024-03-17T12:26:38;2.1;;;1.2;;
49582;SDS011;36329;48.816;44.624;2024-03-17T12:29:41;2.2;;;1.7;;
49582;SDS011;36329;48.816;44.624;2024-03-17T12:32:44;2.5;;;1.6;;
49582;SDS011;36329;48.816;44.624;2024-03-17T12:35:47;2.5;;;1.4;;
49582;SDS011;36329;48.816;44.624;2024-03-17T12:38:49;1.5;;;1.1;;
49582;SDS011;36329;48.816;44.624;2024-03-17T12:45:10;1.6;;;0.8;;
49582;SDS011;36329;48.816;44.624;2024-03-17T12:48:13;1.1;;;0.7;;
49582;SDS011;36329;48.816;44.624;2024-03-17T12:51:15;1.5;;;0.8;;
49582;SDS011;36329;48.816;44.624;2024-03-17T12:54:20;1.2;;;0.8;;
49582;SDS011;36329;48.816;44.624;2024-03-17T12:57:25;1.3;;;0.7;;
49582;SDS011;36329;48.816;44.624;2024-03-17T13:00:27;1.4;;;0.9;;
49582;SDS011;36329;48.816;44.624;2024-03-17T13:03:30;1.1;;;0.6;;
49582;SDS011;36329;48.816;44.624;2024-03-17T13:06:34;1.3;;;0.7;;
49582;SDS011;36329;48.816;44.624;2024-03-17T13:09:36;1.4;;;0.7;;
49582;SDS011;36329;48.816;44.624;2024-03-17T13:12:38;1.1;;;0.7;;
49582;SDS011;36329;48.816;44.624;2024-03-17T13:15:41;1.3;;;0.7;;
49582;SDS011;36329;48.816;44.624;2024-03-17T13:18:44;2.3;;;1.1;;
49582;SDS011;36329;48.816;44.624;2024-03-17T13:21:46;1.6;;;1.1;;
49582;SDS011;36329;48.816;44.624;2024-03-17T13:24:48;1.1;;;0.9;;
49582;SDS011;36329;48.816;44.624;2024-03-17T13:27:50;2.4;;;1.1;;
49582;SDS011;36329;48.816;44.624;2024-03-17T13:30:53;2.3;;;1.4;;
49582;SDS011;36329;48.816;44.624;2024-03-17T13:33:55;2;;;1.1;;
49582;SDS011;36329;48.816;44.624;2024-03-17T13:36:57;3.3;;;1.1;;
49582;SDS011;36329;48.816;44.624;2024-03-17T13:39:59;3.3;;;1.4;;
49582;SDS011;36329;48.816;44.624;2024-03-17T13:43:02;1.7;;;1.1;;
49582;SDS011;36329;48.816;44.624;2024-03-17T13:46:04;1.8;;;1.2;;
49582;SDS011;36329;48.816;44.624;2024-03-17T13:49:07;1.9;;;1;;
49582;SDS011;36329;48.816;44.624;2024-03-17T13:52:10;3;;;1.1;;
49582;SDS011;36329;48.816;44.624;2024-03-17T13:55:13;1.8;;;1.2;;
49582;SDS011;36329;48.816;44.624;2024-03-17T13:58:18;4.4;;;1.3;;
49582;SDS011;36329;48.816;44.624;2024-03-17T14:01:20;3.1;;;1.6;;
49582;SDS011;36329;48.816;44.624;2024-03-17T14:04:22;2.8;;;1.5;;
49582;SDS011;36329;48.816;44.624;2024-03-17T14:07:24;2.8;;;1.8;;
49582;SDS011;36329;48.816;44.624;2024-03-17T14:10:26;2.7;;;1.9;;
49582;SDS011;36329;48.816;44.624;2024-03-17T14:13:29;2.9;;;1.7;;
49582;SDS011;36329;48.816;44.624;2024-03-17T14:16:32;4.2;;;1.8;;
49582;SDS011;36329;48.816;44.624;2024-03-17T14:19:34;4;;;2;;
49582;SDS011;36329;48.816;44.624;2024-03-17T14:22:36;3.9;;;2.3;;
49582;SDS011;36329;48.816;44.624;2024-03-17T14:25:39;6.2;;;2.4;;
49582;SDS011;36329;48.816;44.624;2024-03-17T14:28:41;4.5;;;2.3;;
49582;SDS011;36329;48.816;44.624;2024-03-17T14:31:44;7;;;2.4;;
49582;SDS011;36329;48.816;44.624;2024-03-17T14:34:47;7.6;;;2.7;;
49582;SDS011;36329;48.816;44.624;2024-03-17T14:37:49;5.1;;;2.7;;
49582;SDS011;36329;48.816;44.624;2024-03-17T14:40:52;5.4;;;3.1;;
49582;SDS011;36329;48.816;44.624;2024-03-17T14:43:54;7.1;;;2.7;;
49582;SDS011;36329;48.816;44.624;2024-03-17T14:46:56;8.3;;;3;;
49582;SDS011;36329;48.816;44.624;2024-03-17T14:49:59;5.7;;;3;;
49582;SDS011;36329;48.816;44.624;2024-03-17T14:53:01;9.2;;;2.7;;
49582;SDS011;36329;48.816;44.624;2024-03-17T14:56:04;7.2;;;2.7;;
49582;SDS011;36329;48.816;44.624;2024-03-17T14:59:07;5.2;;;2.7;;
49582;SDS011;36329;48.816;44.624;2024-03-17T15:02:09;8.2;;;3;;
49582;SDS011;36329;48.816;44.624;2024-03-17T15:05:11;6.8;;;2.5;;
49582;SDS011;36329;48.816;44.624;2024-03-17T15:08:13;5.3;;;3.4;;
49582;SDS011;36329;48.816;44.624;2024-03-17T15:11:16;4.7;;;2.4;;
49582;SDS011;36329;48.816;44.624;2024-03-17T15:14:19;4.5;;;2.3;;
49582;SDS011;36329;48.816;44.624;2024-03-17T15:17:21;5.4;;;2.4;;
49582;SDS011;36329;48.816;44.624;2024-03-17T15:20:23;5;;;2.2;;
49582;SDS011;36329;48.816;44.624;2024-03-17T15:23:25;5.7;;;2.4;;
49582;SDS011;36329;48.816;44.624;2024-03-17T15:26:28;4;;;2.2;;
49582;SDS011;36329;48.816;44.624;2024-03-17T15:29:30;5;;;2;;
49582;SDS011;36329;48.816;44.624;2024-03-17T15:32:32;4.5;;;2.5;;
49582;SDS011;36329;48.816;44.624;2024-03-17T15:35:34;3.6;;;2.5;;
49582;SDS011;36329;48.816;44.624;2024-03-17T15:38:37;7.2;;;3.9;;
49582;SDS011;36329;48.816;44.624;2024-03-17T15:41:40;5;;;2.8;;
49582;SDS011;36329;48.816;44.624;2024-03-17T15:44:42;3.7;;;2.2;;
49582;SDS011;36329;48.816;44.624;2024-03-17T15:47:44;4.2;;;2.2;;
49582;SDS011;36329;48.816;44.624;2024-03-17T15:50:53;4.1;;;2.1;;
49582;SDS011;36329;48.816;44.624;2024-03-17T15:53:56;3.5;;;2.1;;
49582;SDS011;36329;48.816;44.624;2024-03-17T15:56:58;3.7;;;2.2;;
49582;SDS011;36329;48.816;44.624;2024-03-17T16:00:00;3.9;;;2.1;;
49582;SDS011;36329;48.816;44.624;2024-03-17T16:03:06;4.9;;;2.3;;
49582;SDS011;36329;48.816;44.624;2024-03-17T16:06:09;4.2;;;2.4;;
49582;SDS011;36329;48.816;44.624;2024-03-17T16:09:13;3.1;;;2.2;;
49582;SDS011;36329;48.816;44.624;2024-03-17T16:12:16;5.7;;;2.5;;
49582;SDS011;36329;48.816;44.624;2024-03-17T16:15:20;4.9;;;2.5;;
49582;SDS011;36329;48.816;44.624;2024-03-17T16:18:23;3.8;;;2.3;;
49582;SDS011;36329;48.816;44.624;2024-03-17T16:21:26;4.3;;;2.2;;
49582;SDS011;36329;48.816;44.624;2024-03-17T16:24:28;4;;;2.3;;
49582;SDS011;36329;48.816;44.624;2024-03-17T16:27:30;4.1;;;2.2;;
49582;SDS011;36329;48.816;44.624;2024-03-17T16:30:33;3.9;;;2.3;;
49582;SDS011;36329;48.816;44.624;2024-03-17T16:33:35;4;;;2.4;;
49582;SDS011;36329;48.816;44.624;2024-03-17T16:36:38;3.6;;;2.2;;
49582;SDS011;36329;48.816;44.624;2024-03-17T16:39:41;4;;;2.3;;
49582;SDS011;36329;48.816;44.624;2024-03-17T16:42:43;3.9;;;2.3;;
49582;SDS011;36329;48.816;44.624;2024-03-17T16:45:56;4;;;2.4;;
49582;SDS011;36329;48.816;44.624;2024-03-17T16:49:06;6.2;;;2.7;;
49582;SDS011;36329;48.816;44.624;2024-03-17T16:52:10;4.4;;;2.8;;
49582;SDS011;36329;48.816;44.624;2024-03-17T16:55:13;5.4;;;2.9;;
49582;SDS011;36329;48.816;44.624;2024-03-17T16:58:17;5.1;;;2.8;;
49582;SDS011;36329;48.816;44.624;2024-03-17T17:01:19;6;;;2.7;;
49582;SDS011;36329;48.816;44.624;2024-03-17T17:04:22;5.6;;;2.8;;
49582;SDS011;36329;48.816;44.624;2024-03-17T17:07:25;4.5;;;2.5;;
49582;SDS011;36329;48.816;44.624;2024-03-17T17:10:27;3.8;;;2.7;;
49582;SDS011;36329;48.816;44.624;2024-03-17T17:13:30;5.5;;;2.8;;
49582;SDS011;36329;48.816;44.624;2024-03-17T17:16:32;3.8;;;2.7;;
49582;SDS011;36329;48.816;44.624;2024-03-17T17:19:34;4.2;;;2.6;;
49582;SDS011;36329;48.816;44.624;2024-03-17T17:22:37;3.5;;;2.6;;
49582;SDS011;36329;48.816;44.624;2024-03-17T17:25:39;3.7;;;2.5;;
49582;SDS011;36329;48.816;44.624;2024-03-17T17:28:42;4.1;;;2.3;;
49582;SDS011;36329;48.816;44.624;2024-03-17T17:31:44;4.6;;;2.5;;
49582;SDS011;36329;48.816;44.624;2024-03-17T17:34:46;5.5;;;2.8;;
49582;SDS011;36329;48.816;44.624;2024-03-17T17:37:49;3.7;;;2.5;;
49582;SDS011;36329;48.816;44.624;2024-03-17T17:40:51;3.9;;;2.7;;
49582;SDS011;36329;48.816;44.624;2024-03-17T17:43:54;4.4;;;2.7;;
49582;SDS011;36329;48.816;44.624;2024-03-17T17:46:56;3.4;;;2.3;;
49582;SDS011;36329;48.816;44.624;2024-03-17T17:50:00;3.7;;;2.2;;
49582;SDS011;36329;48.816;44.624;2024-03-17T17:53:02;4.6;;;2.4;;
49582;SDS011;36329;48.816;44.624;2024-03-17T17:56:05;2.3;;;1.7;;
49582;SDS011;36329;48.816;44.624;2024-03-17T17:59:09;3;;;2.1;;
49582;SDS011;36329;48.816;44.624;2024-03-17T18:02:13;4;;;2.3;;
49582;SDS011;36329;48.816;44.624;2024-03-17T18:05:15;5;;;2.1;;
49582;SDS011;36329;48.816;44.624;2024-03-17T18:08:17;4;;;2.4;;
49582;SDS011;36329;48.816;44.624;2024-03-17T18:11:20;3.5;;;2.4;;
49582;SDS011;36329;48.816;44.624;2024-03-17T18:14:23;4;;;2.4;;
49582;SDS011;36329;48.816;44.624;2024-03-17T18:17:27;4.7;;;2.3;;
49582;SDS011;36329;48.816;44.624;2024-03-17T18:20:29;2.9;;;2.1;;
49582;SDS011;36329;48.816;44.624;2024-03-17T18:23:31;3.9;;;2.4;;
49582;SDS011;36329;48.816;44.624;2024-03-17T18:26:33;4.3;;;2.3;;
49582;SDS011;36329;48.816;44.624;2024-03-17T18:29:36;3.3;;;2.4;;
49582;SDS011;36329;48.816;44.624;2024-03-17T18:32:38;3.6;;;2.3;;
49582;SDS011;36329;48.816;44.624;2024-03-17T18:35:49;3.3;;;2.1;;
49582;SDS011;36329;48.816;44.624;2024-03-17T18:38:55;6.2;;;2.6;;
49582;SDS011;36329;48.816;44.624;2024-03-17T18:41:57;7.4;;;2.5;;
49582;SDS011;36329;48.816;44.624;2024-03-17T18:45:00;4.3;;;2.4;;
49582;SDS011;36329;48.816;44.624;2024-03-17T18:48:06;5.3;;;2.7;;
49582;SDS011;36329;48.816;44.624;2024-03-17T18:51:10;3.8;;;2.5;;